createdAt,value
2017-06-09T00:01:00.901Z,0
2017-06-09T00:01:41.364Z,0
2017-06-09T00:02:22.557Z,0
2017-06-09T00:03:02.193Z,0
2017-06-09T00:03:42.574Z,0
2017-06-09T00:04:22.959Z,0
2017-06-09T00:05:03.384Z,0
2017-06-09T00:05:43.727Z,0
2017-06-09T00:06:24.133Z,0
2017-06-09T00:07:04.771Z,0
2017-06-09T00:07:45.279Z,0
2017-06-09T00:08:25.601Z,0
2017-06-09T00:09:06.320Z,0
2017-06-09T00:09:46.521Z,0
2017-06-09T00:10:26.895Z,0
2017-06-09T00:11:07.326Z,0
2017-06-09T00:11:48.029Z,0
2017-06-09T00:12:28.471Z,0
2017-06-09T00:13:08.869Z,0
2017-06-09T00:13:49.301Z,0
2017-06-09T00:14:29.707Z,0
2017-06-09T00:15:10.102Z,0
2017-06-09T00:15:50.578Z,0
2017-06-09T00:16:30.977Z,0
2017-06-09T00:17:11.357Z,0
2017-06-09T00:17:51.761Z,0
2017-06-09T00:18:32.243Z,0
2017-06-09T00:19:12.675Z,0
2017-06-09T00:19:53.037Z,0
2017-06-09T00:20:33.773Z,0
2017-06-09T00:21:14.192Z,0
2017-06-09T00:21:54.625Z,0
2017-06-09T00:22:35.482Z,0
2017-06-09T00:23:15.896Z,0
2017-06-09T00:23:56.431Z,0
2017-06-09T00:24:37.564Z,0
2017-06-09T00:25:17.328Z,0
2017-06-09T00:25:57.741Z,0
2017-06-09T00:26:38.154Z,0
2017-06-09T00:27:18.683Z,0
2017-06-09T00:27:59.138Z,0
2017-06-09T00:28:39.521Z,0
2017-06-09T00:29:19.932Z,0
2017-06-09T00:30:00.520Z,0
2017-06-09T00:30:40.942Z,0
2017-06-09T00:31:21.376Z,0
2017-06-09T00:32:01.769Z,0
2017-06-09T00:32:42.233Z,0
2017-06-09T00:33:22.623Z,0
2017-06-09T00:34:03.031Z,0
2017-06-09T00:34:45.410Z,0
2017-06-09T00:35:25.834Z,0
2017-06-09T00:36:06.241Z,0
2017-06-09T00:36:46.665Z,0
2017-06-09T00:37:27.086Z,0
2017-06-09T00:38:07.862Z,0
2017-06-09T00:38:48.261Z,0
2017-06-09T00:39:28.710Z,0
2017-06-09T00:40:09.044Z,0
2017-06-09T00:40:49.487Z,0
2017-06-09T00:41:29.847Z,0
2017-06-09T00:42:10.277Z,0
2017-06-09T00:42:50.713Z,0
2017-06-09T00:43:31.090Z,0
2017-06-09T00:44:11.503Z,0
2017-06-09T00:44:52.130Z,0
2017-06-09T00:45:32.560Z,0
2017-06-09T00:46:12.973Z,0
2017-06-09T00:46:53.977Z,0
2017-06-09T00:47:34.768Z,0
2017-06-09T00:48:15.209Z,0
2017-06-09T00:48:55.571Z,0
2017-06-09T00:49:36.037Z,0
2017-06-09T00:50:16.518Z,0
2017-06-09T00:50:56.914Z,0
2017-06-09T00:51:37.298Z,0
2017-06-09T00:52:17.819Z,0
2017-06-09T00:52:58.213Z,0
2017-06-09T00:53:38.644Z,0
2017-06-09T00:54:19.086Z,0
2017-06-09T00:54:59.463Z,0
2017-06-09T00:55:39.903Z,0
2017-06-09T00:56:20.296Z,0
2017-06-09T00:57:00.678Z,0
2017-06-09T00:57:41.075Z,0
2017-06-09T00:58:21.502Z,0
2017-06-09T00:59:01.898Z,0
2017-06-09T00:59:42.345Z,0
2017-06-09T01:00:23.458Z,0
2017-06-09T01:01:04.576Z,0
2017-06-09T01:01:44.899Z,0
2017-06-09T01:02:25.314Z,0
2017-06-09T01:03:05.733Z,0
2017-06-09T01:03:46.145Z,0
2017-06-09T01:04:26.509Z,0
2017-06-09T01:05:06.957Z,0
2017-06-09T01:05:47.334Z,0
2017-06-09T01:06:27.742Z,0
2017-06-09T01:07:08.181Z,0
2017-06-09T01:07:48.544Z,0
2017-06-09T01:08:28.991Z,0
2017-06-09T01:09:09.409Z,0
2017-06-09T01:09:49.811Z,0
2017-06-09T01:10:30.393Z,0
2017-06-09T01:11:11.450Z,0
2017-06-09T01:11:51.851Z,0
2017-06-09T01:12:32.262Z,0
2017-06-09T01:13:12.681Z,0
2017-06-09T01:13:53.058Z,0
2017-06-09T01:14:33.924Z,0
2017-06-09T01:15:14.326Z,0
2017-06-09T01:15:54.717Z,0
2017-06-09T01:16:35.139Z,0
2017-06-09T01:17:15.588Z,0
2017-06-09T01:17:55.992Z,0
2017-06-09T01:18:36.408Z,0
2017-06-09T01:20:54.460Z,0
2017-06-09T01:21:34.858Z,0
2017-06-09T01:22:15.287Z,0
2017-06-09T01:22:55.702Z,0
2017-06-09T01:23:36.087Z,0
2017-06-09T01:24:17.190Z,0
2017-06-09T01:24:57.372Z,0
2017-06-09T01:25:37.751Z,0
2017-06-09T01:26:18.187Z,0
2017-06-09T01:26:58.739Z,0
2017-06-09T01:27:41.285Z,0
2017-06-09T01:28:21.729Z,0
2017-06-09T01:29:02.120Z,0
2017-06-09T01:29:42.515Z,0
2017-06-09T01:30:22.957Z,0
2017-06-09T01:31:03.372Z,0
2017-06-09T01:31:43.773Z,0
2017-06-09T01:32:24.426Z,0
2017-06-09T01:33:04.545Z,0
2017-06-09T01:33:45.065Z,0
2017-06-09T01:34:25.450Z,0
2017-06-09T01:35:05.832Z,0
2017-06-09T01:35:46.247Z,0
2017-06-09T01:36:26.639Z,0
2017-06-09T01:37:07.040Z,0
2017-06-09T01:37:47.448Z,0
2017-06-09T01:38:27.832Z,0
2017-06-09T01:39:08.274Z,0
2017-06-09T01:39:48.639Z,0
2017-06-09T01:40:29.059Z,0
2017-06-09T01:41:11.681Z,0
2017-06-09T01:41:52.832Z,0
2017-06-09T01:42:33.232Z,0
2017-06-09T01:43:13.674Z,0
2017-06-09T01:43:54.063Z,0
2017-06-09T01:44:34.459Z,0
2017-06-09T01:45:16.109Z,0
2017-06-09T01:45:56.446Z,0
2017-06-09T01:46:36.902Z,0
2017-06-09T01:47:17.303Z,0
2017-06-09T01:47:57.678Z,0
2017-06-09T01:48:38.116Z,0
2017-06-09T01:49:19.364Z,0
2017-06-09T01:49:59.857Z,0
2017-06-09T01:50:40.333Z,0
2017-06-09T01:51:20.686Z,0
2017-06-09T01:52:01.593Z,0
2017-06-09T01:52:42.082Z,0
2017-06-09T01:53:22.526Z,0
2017-06-09T01:54:02.931Z,0
2017-06-09T01:54:44.422Z,0
2017-06-09T01:55:24.870Z,0
2017-06-09T01:56:05.245Z,0
2017-06-09T01:56:45.683Z,0
2017-06-09T01:57:26.082Z,0
2017-06-09T01:59:44.274Z,0
2017-06-09T02:00:24.677Z,0
2017-06-09T02:01:05.121Z,0
2017-06-09T02:01:45.548Z,0
2017-06-09T02:02:25.969Z,0
2017-06-09T02:03:06.348Z,0
2017-06-09T02:03:46.766Z,0
2017-06-09T02:04:27.187Z,0
2017-06-09T02:05:07.909Z,0
2017-06-09T02:05:49.061Z,0
2017-06-09T02:06:29.469Z,0
2017-06-09T02:07:10.637Z,0
2017-06-09T02:09:23.655Z,0
2017-06-09T02:10:04.071Z,0
2017-06-09T02:10:44.431Z,0
2017-06-09T02:11:24.876Z,0
2017-06-09T02:12:05.245Z,0
2017-06-09T02:12:45.750Z,0
2017-06-09T02:13:26.338Z,0
2017-06-09T02:14:06.708Z,0
2017-06-09T02:14:47.750Z,0
2017-06-09T02:15:28.165Z,0
2017-06-09T02:16:08.523Z,0
2017-06-09T02:16:48.950Z,0
2017-06-09T02:17:29.428Z,0
2017-06-09T02:18:09.878Z,0
2017-06-09T02:18:51.382Z,0
2017-06-09T02:19:31.264Z,0
2017-06-09T02:20:11.736Z,0
2017-06-09T02:20:52.808Z,0
2017-06-09T02:21:34.070Z,0
2017-06-09T02:22:14.889Z,0
2017-06-09T02:22:55.327Z,0
2017-06-09T02:23:35.680Z,0
2017-06-09T02:24:16.080Z,0
2017-06-09T02:24:56.524Z,0
2017-06-09T02:25:37.852Z,0
2017-06-09T02:26:18.281Z,0
2017-06-09T02:26:58.812Z,0
2017-06-09T02:27:39.187Z,0
2017-06-09T02:28:20.186Z,0
2017-06-09T02:29:00.849Z,0
2017-06-09T02:29:41.280Z,0
2017-06-09T02:30:21.676Z,0
2017-06-09T02:31:02.080Z,0
2017-06-09T02:31:42.498Z,0
2017-06-09T02:32:22.981Z,0
2017-06-09T02:33:03.347Z,0
2017-06-09T02:33:44.097Z,0
2017-06-09T02:34:24.479Z,0
2017-06-09T02:35:04.886Z,0
2017-06-09T02:35:45.269Z,0
2017-06-09T02:36:25.730Z,0
2017-06-09T02:37:06.142Z,4
2017-06-09T02:37:46.522Z,4
2017-06-09T02:38:26.941Z,4
2017-06-09T02:39:07.340Z,4
2017-06-09T02:39:47.755Z,0
2017-06-09T02:40:28.294Z,0
2017-06-09T02:41:08.605Z,4
2017-06-09T02:41:49.008Z,4
2017-06-09T02:42:29.425Z,4
2017-06-09T02:43:09.850Z,4
2017-06-09T02:43:50.283Z,4
2017-06-09T02:44:30.707Z,4
2017-06-09T02:45:11.114Z,4
2017-06-09T02:45:51.654Z,4
2017-06-09T02:46:32.046Z,8
2017-06-09T02:47:12.473Z,4
2017-06-09T02:47:52.853Z,8
2017-06-09T02:48:33.426Z,8
2017-06-09T02:49:13.874Z,8
2017-06-09T02:49:54.257Z,8
2017-06-09T02:50:34.702Z,8
2017-06-09T02:51:15.097Z,8
2017-06-09T02:51:55.527Z,12
2017-06-09T02:52:35.947Z,12
2017-06-09T02:53:16.318Z,12
2017-06-09T02:53:56.758Z,16
2017-06-09T02:54:37.198Z,12
2017-06-09T02:55:17.599Z,16
2017-06-09T02:55:57.984Z,20
2017-06-09T02:56:38.408Z,20
2017-06-09T02:57:18.833Z,20
2017-06-09T02:58:00.108Z,24
2017-06-09T02:58:40.535Z,24
2017-06-09T02:59:20.967Z,28
2017-06-09T03:00:01.403Z,28
2017-06-09T03:00:41.832Z,32
2017-06-09T03:01:22.220Z,36
2017-06-09T03:02:02.594Z,36
2017-06-09T03:02:42.970Z,40
2017-06-09T03:03:23.491Z,44
2017-06-09T03:04:04.498Z,48
2017-06-09T03:04:44.929Z,48
2017-06-09T03:05:25.298Z,52
2017-06-09T03:06:05.775Z,56
2017-06-09T03:06:46.179Z,64
2017-06-09T03:07:26.633Z,68
2017-06-09T03:08:07.029Z,72
2017-06-09T03:08:47.493Z,76
2017-06-09T03:09:27.905Z,80
2017-06-09T03:12:01.050Z,96
2017-06-09T03:12:41.445Z,104
2017-06-09T03:13:21.915Z,108
2017-06-09T03:14:02.341Z,116
2017-06-09T03:14:42.721Z,120
2017-06-09T03:15:23.469Z,132
2017-06-09T03:16:04.473Z,136
2017-06-09T03:16:44.855Z,148
2017-06-09T03:17:25.276Z,156
2017-06-09T03:18:05.711Z,164
2017-06-09T03:18:46.144Z,172
2017-06-09T03:19:26.615Z,176
2017-06-09T03:20:07.140Z,188
2017-06-09T03:20:47.602Z,196
2017-06-09T03:21:27.992Z,204
2017-06-09T03:22:08.487Z,212
2017-06-09T03:22:49.009Z,220
2017-06-09T03:23:29.407Z,228
2017-06-09T03:24:09.837Z,236
2017-06-09T03:24:50.264Z,248
2017-06-09T03:25:31.402Z,256
2017-06-09T03:26:11.791Z,268
2017-06-09T03:26:52.201Z,272
2017-06-09T03:27:32.599Z,284
2017-06-09T03:28:13.006Z,296
2017-06-09T03:28:53.438Z,304
2017-06-09T03:29:33.882Z,316
2017-06-09T03:30:14.297Z,328
2017-06-09T03:30:54.772Z,340
2017-06-09T03:31:35.122Z,348
2017-06-09T03:32:15.622Z,360
2017-06-09T03:32:55.985Z,372
2017-06-09T03:33:36.392Z,380
2017-06-09T03:34:16.809Z,396
2017-06-09T03:34:57.219Z,404
2017-06-09T03:35:37.620Z,420
2017-06-09T03:36:18.018Z,428
2017-06-09T03:36:58.437Z,440
2017-06-09T03:37:38.808Z,452
2017-06-09T03:38:19.274Z,464
2017-06-09T03:38:59.613Z,472
2017-06-09T03:39:40.041Z,484
2017-06-09T03:40:20.453Z,492
2017-06-09T03:41:00.996Z,508
2017-06-09T03:41:41.300Z,516
2017-06-09T03:42:21.715Z,532
2017-06-09T03:43:02.166Z,544
2017-06-09T03:43:42.577Z,556
2017-06-09T03:44:22.982Z,576
2017-06-09T03:45:03.335Z,592
2017-06-09T03:45:43.838Z,612
2017-06-09T03:46:24.217Z,632
2017-06-09T03:47:04.600Z,652
2017-06-09T03:47:45.036Z,676
2017-06-09T03:48:25.556Z,696
2017-06-09T03:49:05.899Z,724
2017-06-09T03:49:46.302Z,744
2017-06-09T03:50:26.695Z,752
2017-06-09T03:51:07.127Z,772
2017-06-09T03:53:20.138Z,868
2017-06-09T03:54:01.813Z,912
2017-06-09T03:54:42.433Z,944
2017-06-09T03:55:23.109Z,972
2017-06-09T03:56:03.763Z,1004
2017-06-09T03:56:44.057Z,1032
2017-06-09T03:57:24.516Z,1060
2017-06-09T03:58:04.935Z,1092
2017-06-09T03:58:45.376Z,1124
2017-06-09T03:59:25.757Z,1160
2017-06-09T04:00:06.220Z,1192
2017-06-09T04:00:46.642Z,1224
2017-06-09T04:01:27.043Z,1264
2017-06-09T04:02:07.647Z,1296
2017-06-09T04:02:48.019Z,1332
2017-06-09T04:03:28.458Z,1368
2017-06-09T04:04:08.919Z,1388
2017-06-09T04:04:49.471Z,1408
2017-06-09T04:05:29.965Z,1420
2017-06-09T04:06:10.503Z,1428
2017-06-09T04:06:50.964Z,1440
2017-06-09T04:07:31.352Z,1452
2017-06-09T04:08:11.776Z,1464
2017-06-09T04:08:52.166Z,1476
2017-06-09T04:09:32.646Z,1492
2017-06-09T04:10:13.505Z,1508
2017-06-09T04:10:53.951Z,1516
2017-06-09T04:11:35.328Z,1524
2017-06-09T04:12:15.695Z,1540
2017-06-09T04:12:56.242Z,1568
2017-06-09T04:13:36.570Z,1608
2017-06-09T04:14:17.144Z,1644
2017-06-09T04:14:57.579Z,1684
2017-06-09T04:15:37.981Z,1716
2017-06-09T04:16:18.483Z,1720
2017-06-09T04:16:58.894Z,1744
2017-06-09T04:17:39.405Z,1816
2017-06-09T04:18:20.479Z,1880
2017-06-09T04:19:00.921Z,1920
2017-06-09T04:19:41.399Z,1940
2017-06-09T04:20:21.876Z,1920
2017-06-09T04:21:02.262Z,1920
2017-06-09T04:21:42.635Z,1960
2017-06-09T04:22:23.059Z,2044
2017-06-09T04:23:03.532Z,2172
2017-06-09T04:23:44.012Z,2284
2017-06-09T04:24:24.403Z,2308
2017-06-09T04:25:04.837Z,2316
2017-06-09T04:25:45.225Z,2352
2017-06-09T04:26:25.648Z,2384
2017-06-09T04:27:06.079Z,2380
2017-06-09T04:27:46.568Z,2388
2017-06-09T04:28:26.968Z,2392
2017-06-09T04:29:07.402Z,2400
2017-06-09T04:31:21.070Z,2564
2017-06-09T04:32:01.349Z,2632
2017-06-09T04:32:41.830Z,2632
2017-06-09T04:33:22.262Z,2648
2017-06-09T04:34:02.661Z,2644
2017-06-09T04:34:43.107Z,2644
2017-06-09T04:35:23.501Z,2640
2017-06-09T04:36:03.851Z,2576
2017-06-09T04:36:44.299Z,2552
2017-06-09T04:37:24.969Z,2544
2017-06-09T04:38:05.365Z,2532
2017-06-09T04:38:45.771Z,2592
2017-06-09T04:39:26.239Z,2752
2017-06-09T04:40:06.620Z,2832
2017-06-09T04:40:47.041Z,2860
2017-06-09T04:41:27.506Z,2876
2017-06-09T04:42:07.886Z,2852
2017-06-09T04:42:48.244Z,2972
2017-06-09T04:43:28.691Z,2960
2017-06-09T04:44:09.115Z,2856
2017-06-09T04:44:49.499Z,2848
2017-06-09T04:45:30.013Z,2900
2017-06-09T04:46:10.381Z,3032
2017-06-09T04:46:50.822Z,2968
2017-06-09T04:47:31.221Z,2876
2017-06-09T04:48:11.642Z,2848
2017-06-09T04:48:52.030Z,2816
2017-06-09T04:49:32.451Z,2900
2017-06-09T04:50:12.809Z,2792
2017-06-09T04:50:53.252Z,2504
2017-06-09T04:51:33.627Z,2716
2017-06-09T04:52:14.200Z,2756
2017-06-09T04:52:54.658Z,2720
2017-06-09T04:53:35.050Z,2724
2017-06-09T04:54:15.463Z,2812
2017-06-09T04:54:56.070Z,2616
2017-06-09T04:55:36.283Z,2360
2017-06-09T04:56:16.711Z,2320
2017-06-09T04:56:57.112Z,2320
2017-06-09T04:57:37.489Z,2500
2017-06-09T04:58:17.954Z,2500
2017-06-09T04:58:58.399Z,2636
2017-06-09T04:59:38.886Z,3072
2017-06-09T05:00:19.382Z,2940
2017-06-09T05:00:59.869Z,2776
2017-06-09T05:01:40.253Z,2956
2017-06-09T05:02:20.659Z,3336
2017-06-09T05:03:01.069Z,3552
2017-06-09T05:03:41.478Z,3408
2017-06-09T05:04:21.899Z,3392
2017-06-09T05:05:02.267Z,3488
2017-06-09T05:05:42.675Z,3484
2017-06-09T05:06:23.124Z,3744
2017-06-09T05:07:03.565Z,3820
2017-06-09T05:07:43.951Z,3880
2017-06-09T05:08:24.375Z,3888
2017-06-09T05:09:04.834Z,3936
2017-06-09T05:09:45.167Z,3964
2017-06-09T05:10:25.646Z,3976
2017-06-09T05:11:05.988Z,3992
2017-06-09T05:11:46.491Z,4012
2017-06-09T05:12:26.896Z,4032
2017-06-09T05:13:07.330Z,3972
2017-06-09T05:13:47.776Z,4028
2017-06-09T05:14:28.230Z,4088
2017-06-09T05:15:08.672Z,4116
2017-06-09T05:15:49.102Z,4104
2017-06-09T05:16:29.489Z,4168
2017-06-09T05:17:09.926Z,4200
2017-06-09T05:17:50.386Z,4224
2017-06-09T05:18:30.735Z,4240
2017-06-09T05:19:11.190Z,4260
2017-06-09T05:19:51.655Z,4280
2017-06-09T05:20:32.049Z,4312
2017-06-09T05:21:12.442Z,4328
2017-06-09T05:21:52.806Z,4348
2017-06-09T05:22:33.181Z,4380
2017-06-09T05:23:13.592Z,4396
2017-06-09T05:23:54.055Z,4420
2017-06-09T05:24:34.570Z,4444
2017-06-09T05:25:14.883Z,4468
2017-06-09T05:25:55.418Z,4500
2017-06-09T05:26:35.704Z,4508
2017-06-09T05:27:16.215Z,4524
2017-06-09T05:27:56.517Z,4548
2017-06-09T05:28:37.147Z,4576
2017-06-09T05:29:17.603Z,4588
2017-06-09T05:29:58.038Z,4620
2017-06-09T05:30:38.440Z,4636
2017-06-09T05:31:18.871Z,4652
2017-06-09T05:31:59.301Z,4672
2017-06-09T05:32:39.819Z,4692
2017-06-09T05:33:20.206Z,4712
2017-06-09T05:34:00.640Z,4736
2017-06-09T05:34:41.079Z,4752
2017-06-09T05:35:21.430Z,4768
2017-06-09T05:36:01.806Z,4784
2017-06-09T05:36:42.217Z,4804
2017-06-09T05:37:22.640Z,4832
2017-06-09T05:38:03.088Z,4856
2017-06-09T05:38:43.444Z,4888
2017-06-09T05:39:24.337Z,4904
2017-06-09T05:40:05.044Z,4912
2017-06-09T05:40:45.518Z,4912
2017-06-09T05:41:26.927Z,4924
2017-06-09T05:42:07.561Z,4944
2017-06-09T05:42:48.010Z,4964
2017-06-09T05:43:28.419Z,4984
2017-06-09T05:44:09.127Z,5008
2017-06-09T05:44:49.588Z,5012
2017-06-09T05:45:31.203Z,5024
2017-06-09T05:46:11.975Z,5036
2017-06-09T05:46:53.010Z,5060
2017-06-09T05:47:33.889Z,5100
2017-06-09T05:48:14.387Z,5124
2017-06-09T05:48:54.774Z,5120
2017-06-09T05:49:35.161Z,5156
2017-06-09T05:50:15.608Z,5180
2017-06-09T05:50:56.472Z,5220
2017-06-09T05:51:37.019Z,5240
2017-06-09T05:52:18.051Z,5248
2017-06-09T05:52:57.902Z,5268
2017-06-09T05:53:38.448Z,5276
2017-06-09T05:54:18.866Z,5312
2017-06-09T05:54:59.254Z,5344
2017-06-09T05:55:39.653Z,5372
2017-06-09T05:56:20.335Z,5404
2017-06-09T05:57:00.797Z,5440
2017-06-09T05:57:41.304Z,5472
2017-06-09T05:58:21.816Z,5504
2017-06-09T05:59:02.322Z,5528
2017-06-09T05:59:42.701Z,5552
2017-06-09T06:01:41.354Z,5752
2017-06-09T06:02:21.725Z,5820
2017-06-09T06:03:02.151Z,5872
2017-06-09T06:03:42.570Z,5952
2017-06-09T06:04:22.974Z,6024
2017-06-09T06:05:03.473Z,6104
2017-06-09T06:05:43.821Z,5592
2017-06-09T06:06:24.274Z,6236
2017-06-09T06:07:04.717Z,6420
2017-06-09T06:07:45.283Z,6540
2017-06-09T06:08:25.627Z,6700
2017-06-09T06:09:06.091Z,6864
2017-06-09T06:09:46.466Z,6988
2017-06-09T06:10:26.912Z,7040
2017-06-09T06:11:07.335Z,7228
2017-06-09T06:11:47.747Z,7588
2017-06-09T06:12:28.096Z,7772
2017-06-09T06:13:08.504Z,7944
2017-06-09T06:13:48.917Z,8092
2017-06-09T06:14:29.360Z,8244
2017-06-09T06:15:09.746Z,8432
2017-06-09T06:15:50.168Z,8664
2017-06-09T06:16:30.610Z,8692
2017-06-09T06:17:10.962Z,8844
2017-06-09T06:17:51.401Z,8744
2017-06-09T06:18:31.845Z,9124
2017-06-09T06:19:12.204Z,9612
2017-06-09T06:19:52.611Z,10056
2017-06-09T06:20:33.055Z,10344
2017-06-09T06:21:13.490Z,10096
2017-06-09T06:21:53.864Z,10700
2017-06-09T06:22:34.241Z,10904
2017-06-09T06:23:14.693Z,10960
2017-06-09T06:23:55.043Z,10988
2017-06-09T06:24:35.486Z,11120
2017-06-09T06:25:15.933Z,11084
2017-06-09T06:25:56.363Z,11028
2017-06-09T06:26:36.837Z,11076
2017-06-09T06:27:17.168Z,11052
2017-06-09T06:27:57.630Z,10684
2017-06-09T06:28:38.050Z,10688
2017-06-09T06:29:18.680Z,10920
2017-06-09T06:29:59.146Z,11048
2017-06-09T06:30:39.581Z,10580
2017-06-09T06:31:19.927Z,10848
2017-06-09T06:32:00.387Z,11772
2017-06-09T06:32:40.776Z,12348
2017-06-09T06:33:21.225Z,12596
2017-06-09T06:34:01.577Z,12816
2017-06-09T06:34:42.025Z,12832
2017-06-09T06:35:22.509Z,13232
2017-06-09T06:36:02.906Z,13996
2017-06-09T06:36:43.339Z,14316
2017-06-09T06:37:23.704Z,14660
2017-06-09T06:38:04.182Z,14684
2017-06-09T06:38:44.636Z,15420
2017-06-09T06:39:25.093Z,15736
2017-06-09T06:40:05.510Z,16064
2017-06-09T06:40:45.887Z,16316
2017-06-09T06:41:26.302Z,16896
2017-06-09T06:42:06.757Z,17216
2017-06-09T06:42:47.165Z,17248
2017-06-09T06:43:27.551Z,17440
2017-06-09T06:44:08.018Z,17408
2017-06-09T06:44:48.503Z,16800
2017-06-09T06:45:28.960Z,16992
2017-06-09T06:46:09.338Z,16960
2017-06-09T06:46:49.848Z,17088
2017-06-09T06:47:30.237Z,16928
2017-06-09T06:48:10.612Z,16292
2017-06-09T06:48:51.024Z,16008
2017-06-09T06:49:31.461Z,15540
2017-06-09T06:50:11.851Z,15544
2017-06-09T06:50:52.251Z,15508
2017-06-09T06:51:32.710Z,15324
2017-06-09T06:52:13.146Z,15336
2017-06-09T06:52:53.588Z,15328
2017-06-09T06:53:33.974Z,15272
2017-06-09T06:54:14.431Z,15308
2017-06-09T06:54:54.836Z,15000
2017-06-09T06:55:35.285Z,14764
2017-06-09T06:56:15.707Z,14684
2017-06-09T06:56:56.117Z,14912
2017-06-09T06:57:36.529Z,14984
2017-06-09T06:58:16.927Z,15368
2017-06-09T06:58:57.324Z,16028
2017-06-09T06:59:37.852Z,16432
2017-06-09T07:00:18.264Z,16960
2017-06-09T07:00:58.653Z,17184
2017-06-09T07:01:39.105Z,17632
2017-06-09T07:02:19.515Z,18208
2017-06-09T07:02:59.902Z,18400
2017-06-09T07:03:40.300Z,18880
2017-06-09T07:04:20.783Z,19360
2017-06-09T07:05:01.222Z,19232
2017-06-09T07:05:41.605Z,18528
2017-06-09T07:06:22.057Z,17792
2017-06-09T07:07:02.444Z,17472
2017-06-09T07:07:42.928Z,17472
2017-06-09T07:08:23.386Z,17888
2017-06-09T07:09:03.766Z,18528
2017-06-09T07:09:44.182Z,19136
2017-06-09T07:10:24.616Z,19584
2017-06-09T07:11:05.051Z,19680
2017-06-09T07:11:45.465Z,19520
2017-06-09T07:12:25.857Z,20064
2017-06-09T07:13:06.300Z,20320
2017-06-09T07:13:46.714Z,20928
2017-06-09T07:14:27.154Z,22208
2017-06-09T07:15:07.567Z,22336
2017-06-09T07:15:47.932Z,22848
2017-06-09T07:16:28.413Z,23040
2017-06-09T07:17:08.779Z,22624
2017-06-09T07:17:49.185Z,23776
2017-06-09T07:18:29.599Z,25120
2017-06-09T07:19:10.102Z,25152
2017-06-09T07:19:50.591Z,25600
2017-06-09T07:20:30.847Z,26048
2017-06-09T07:21:11.310Z,28096
2017-06-09T07:21:51.710Z,26176
2017-06-09T07:22:32.129Z,23616
2017-06-09T07:23:12.526Z,24576
2017-06-09T07:23:52.962Z,23392
2017-06-09T07:24:33.316Z,23936
2017-06-09T07:25:13.898Z,24448
2017-06-09T07:25:54.454Z,26304
2017-06-09T07:26:35.043Z,28544
2017-06-09T07:27:15.328Z,26272
2017-06-09T07:27:55.698Z,28096
2017-06-09T07:28:36.089Z,27072
2017-06-09T07:29:16.538Z,24768
2017-06-09T07:29:56.985Z,23904
2017-06-09T07:30:37.361Z,22752
2017-06-09T07:31:17.820Z,22144
2017-06-09T07:31:58.261Z,20320
2017-06-09T07:32:38.705Z,20128
2017-06-09T07:33:19.071Z,19488
2017-06-09T07:33:59.507Z,19136
2017-06-09T07:34:39.857Z,18592
2017-06-09T07:35:20.253Z,18176
2017-06-09T07:36:00.730Z,17888
2017-06-09T07:36:41.210Z,17952
2017-06-09T07:37:21.583Z,17728
2017-06-09T07:38:02.050Z,17696
2017-06-09T07:38:42.437Z,17536
2017-06-09T07:39:22.912Z,17504
2017-06-09T07:40:03.342Z,17344
2017-06-09T07:40:43.779Z,17216
2017-06-09T07:41:24.241Z,17312
2017-06-09T07:42:04.588Z,17408
2017-06-09T07:42:45.035Z,17504
2017-06-09T07:43:25.398Z,17920
2017-06-09T07:44:05.963Z,18720
2017-06-09T07:44:46.356Z,18560
2017-06-09T07:45:26.733Z,18208
2017-06-09T07:46:07.163Z,17696
2017-06-09T07:46:47.594Z,17696
2017-06-09T07:47:28.070Z,17952
2017-06-09T07:48:08.525Z,17792
2017-06-09T07:48:48.847Z,17888
2017-06-09T07:49:29.308Z,17952
2017-06-09T07:50:09.753Z,17696
2017-06-09T07:50:50.133Z,16092
2017-06-09T07:51:30.544Z,15580
2017-06-09T07:52:10.958Z,15416
2017-06-09T07:52:51.366Z,15276
2017-06-09T07:53:31.772Z,15264
2017-06-09T07:54:12.259Z,15412
2017-06-09T07:54:52.677Z,15632
2017-06-09T07:55:33.133Z,15808
2017-06-09T07:56:13.502Z,16048
2017-06-09T07:56:53.885Z,16408
2017-06-09T07:57:34.299Z,17152
2017-06-09T07:58:14.724Z,17088
2017-06-09T07:58:55.100Z,16736
2017-06-09T07:59:35.540Z,15056
2017-06-09T08:00:16.037Z,15024
2017-06-09T08:00:56.428Z,14648
2017-06-09T08:01:36.785Z,14656
2017-06-09T08:02:17.237Z,14828
2017-06-09T08:02:57.598Z,15032
2017-06-09T08:03:38.079Z,15388
2017-06-09T08:04:18.441Z,15736
2017-06-09T08:04:58.900Z,16084
2017-06-09T08:05:39.260Z,16736
2017-06-09T08:06:19.679Z,16960
2017-06-09T08:07:00.189Z,17280
2017-06-09T08:07:40.587Z,17856
2017-06-09T08:08:20.996Z,18240
2017-06-09T08:09:01.403Z,18176
2017-06-09T08:09:41.805Z,18752
2017-06-09T08:10:22.174Z,19616
2017-06-09T08:11:02.602Z,20736
2017-06-09T08:11:43.055Z,22368
2017-06-09T08:12:23.446Z,24832
2017-06-09T08:13:03.866Z,27264
2017-06-09T08:13:44.286Z,31200
2017-06-09T08:14:24.675Z,37376
2017-06-09T08:15:05.103Z,39552
2017-06-09T08:15:45.497Z,37344
2017-06-09T08:16:25.904Z,28480
2017-06-09T08:17:06.295Z,25280
2017-06-09T08:17:46.714Z,22208
2017-06-09T08:18:27.105Z,20736
2017-06-09T08:19:07.598Z,20736
2017-06-09T08:19:48.032Z,20160
2017-06-09T08:20:28.405Z,20128
2017-06-09T08:21:08.834Z,21184
2017-06-09T08:21:49.281Z,24288
2017-06-09T08:22:29.735Z,23904
2017-06-09T08:23:10.153Z,23872
2017-06-09T08:23:50.548Z,24160
2017-06-09T08:24:30.922Z,25760
2017-06-09T08:25:11.358Z,28128
2017-06-09T08:25:51.758Z,28800
2017-06-09T08:26:32.153Z,24160
2017-06-09T08:27:12.593Z,23520
2017-06-09T08:27:53.001Z,18880
2017-06-09T08:28:33.427Z,15268
2017-06-09T08:29:13.819Z,13828
2017-06-09T08:29:54.231Z,13600
2017-06-09T08:32:07.473Z,15764
2017-06-09T08:32:47.774Z,16992
2017-06-09T08:33:28.141Z,18400
2017-06-09T08:34:08.569Z,20128
2017-06-09T08:34:48.998Z,22592
2017-06-09T08:35:29.412Z,27904
2017-06-09T08:36:09.816Z,30336
2017-06-09T08:36:50.235Z,31680
2017-06-09T08:37:30.674Z,32928
2017-06-09T08:38:11.087Z,31968
2017-06-09T08:38:51.472Z,29440
2017-06-09T08:39:31.890Z,29408
2017-06-09T08:40:12.278Z,32416
2017-06-09T08:40:52.710Z,44096
2017-06-09T08:41:33.053Z,57344
2017-06-09T08:42:13.502Z,53984
2017-06-09T08:42:53.899Z,59520
2017-06-09T08:43:34.293Z,60608
2017-06-09T08:44:14.767Z,29248
2017-06-09T08:44:55.142Z,25888
2017-06-09T08:45:35.569Z,24320
2017-06-09T08:46:15.964Z,24416
2017-06-09T08:46:56.362Z,25216
2017-06-09T08:47:36.810Z,26816
2017-06-09T08:48:17.253Z,30816
2017-06-09T08:48:57.670Z,31456
2017-06-09T08:49:38.056Z,30144
2017-06-09T08:50:18.468Z,31936
2017-06-09T08:50:58.908Z,33984
2017-06-09T08:51:39.342Z,35296
2017-06-09T08:52:19.701Z,34816
2017-06-09T08:53:00.127Z,29696
2017-06-09T08:53:40.545Z,26816
2017-06-09T08:54:20.958Z,21664
2017-06-09T08:55:01.413Z,20000
2017-06-09T08:55:41.784Z,19296
2017-06-09T08:56:22.190Z,18656
2017-06-09T08:57:02.604Z,17664
2017-06-09T08:57:43.019Z,17120
2017-06-09T08:58:23.401Z,16768
2017-06-09T08:59:03.825Z,16408
2017-06-09T08:59:44.220Z,16260
2017-06-09T09:00:24.750Z,16248
2017-06-09T09:01:05.114Z,16348
2017-06-09T09:01:45.576Z,16520
2017-06-09T09:02:25.993Z,16928
2017-06-09T09:03:06.412Z,17440
2017-06-09T09:03:46.916Z,18080
2017-06-09T09:04:27.295Z,19392
2017-06-09T09:05:07.686Z,21536
2017-06-09T09:05:48.165Z,22656
2017-06-09T09:06:28.553Z,22784
2017-06-09T09:07:08.973Z,23392
2017-06-09T09:07:49.380Z,24320
2017-06-09T09:08:29.808Z,24864
2017-06-09T09:09:10.296Z,26080
2017-06-09T09:09:50.673Z,26496
2017-06-09T09:10:31.094Z,29248
2017-06-09T09:11:11.547Z,30368
2017-06-09T09:11:51.963Z,31808
2017-06-09T09:12:32.403Z,33472
2017-06-09T09:13:12.772Z,33632
2017-06-09T09:13:53.206Z,35520
2017-06-09T09:14:33.642Z,38496
2017-06-09T09:15:14.044Z,28864
2017-06-09T09:15:54.452Z,27136
2017-06-09T09:16:34.847Z,27296
2017-06-09T09:17:15.212Z,29184
2017-06-09T09:17:55.658Z,34880
2017-06-09T09:18:36.079Z,39776
2017-06-09T09:19:16.542Z,49184
2017-06-09T09:19:56.966Z,63936
2017-06-09T09:20:37.438Z,65600
2017-06-09T09:21:17.782Z,59616
2017-06-09T09:21:58.185Z,52192
2017-06-09T09:22:38.568Z,58592
2017-06-09T09:23:19.022Z,63488
2017-06-09T09:23:59.483Z,59328
2017-06-09T09:24:39.867Z,50688